sensor_id;sensor_type;location;lat;lon;timestamp;P1;durP1;ratioP1;P2;durP2;ratioP2
14251;SDS011;7210;51.502;10.722;2023-11-18T00:00:50;13.60;;;9.90;;
14251;SDS011;7210;51.502;10.722;2023-11-18T00:03:18;16.07;;;10.37;;
14251;SDS011;7210;51.502;10.722;2023-11-18T00:05:56;14.73;;;10.20;;
14251;SDS011;7210;51.502;10.722;2023-11-18T00:08:23;14.70;;;10.30;;
14251;SDS011;7210;51.502;10.722;2023-11-18T00:10:50;15.87;;;10.63;;
14251;SDS011;7210;51.502;10.722;2023-11-18T00:18:51;16.30;;;11.60;;
14251;SDS011;7210;51.502;10.722;2023-11-18T00:21:26;17.23;;;11.23;;
14251;SDS011;7210;51.502;10.722;2023-11-18T00:29:50;17.90;;;12.43;;
14251;SDS011;7210;51.502;10.722;2023-11-18T00:32:20;18.57;;;13.13;;
14251;SDS011;7210;51.502;10.722;2023-11-18T00:34:51;19.63;;;14.07;;
14251;SDS011;7210;51.502;10.722;2023-11-18T00:37:26;21.00;;;13.37;;
14251;SDS011;7210;51.502;10.722;2023-11-18T00:39:53;24.47;;;15.53;;
14251;SDS011;7210;51.502;10.722;2023-11-18T00:45:16;26.13;;;15.60;;
14251;SDS011;7210;51.502;10.722;2023-11-18T00:59:26;27.77;;;16.20;;
14251;SDS011;7210;51.502;10.722;2023-11-18T01:01:53;23.23;;;14.70;;
14251;SDS011;7210;51.502;10.722;2023-11-18T01:04:26;27.30;;;16.50;;
14251;SDS011;7210;51.502;10.722;2023-11-18T01:06:54;27.03;;;17.27;;
14251;SDS011;7210;51.502;10.722;2023-11-18T01:09:26;28.53;;;18.30;;
14251;SDS011;7210;51.502;10.722;2023-11-18T01:14:59;26.27;;;15.60;;
14251;SDS011;7210;51.502;10.722;2023-11-18T01:17:26;27.30;;;15.17;;
14251;SDS011;7210;51.502;10.722;2023-11-18T01:19:53;25.50;;;16.33;;
14251;SDS011;7210;51.502;10.722;2023-11-18T01:22:27;22.87;;;15.57;;
14251;SDS011;7210;51.502;10.722;2023-11-18T01:24:54;24.17;;;15.17;;
14251;SDS011;7210;51.502;10.722;2023-11-18T01:36:53;23.90;;;16.03;;
14251;SDS011;7210;51.502;10.722;2023-11-18T01:39:27;27.93;;;16.63;;
14251;SDS011;7210;51.502;10.722;2023-11-18T01:42:02;26.67;;;16.07;;
14251;SDS011;7210;51.502;10.722;2023-11-18T01:47:32;23.77;;;15.77;;
14251;SDS011;7210;51.502;10.722;2023-11-18T01:50:08;24.77;;;16.07;;
14251;SDS011;7210;51.502;10.722;2023-11-18T01:52:44;29.47;;;16.97;;
14251;SDS011;7210;51.502;10.722;2023-11-18T01:55:14;27.47;;;15.13;;
14251;SDS011;7210;51.502;10.722;2023-11-18T01:57:50;28.20;;;16.33;;
14251;SDS011;7210;51.502;10.722;2023-11-18T02:00:17;25.63;;;15.93;;
14251;SDS011;7210;51.502;10.722;2023-11-18T02:05:38;28.33;;;17.27;;
14251;SDS011;7210;51.502;10.722;2023-11-18T02:11:47;26.50;;;17.10;;
14251;SDS011;7210;51.502;10.722;2023-11-18T02:14:20;30.40;;;16.10;;
14251;SDS011;7210;51.502;10.722;2023-11-18T02:20:14;27.50;;;17.07;;
14251;SDS011;7210;51.502;10.722;2023-11-18T02:26:09;31.73;;;17.17;;
14251;SDS011;7210;51.502;10.722;2023-11-18T02:28:44;27.43;;;17.23;;
14251;SDS011;7210;51.502;10.722;2023-11-18T02:34:45;26.67;;;16.37;;
14251;SDS011;7210;51.502;10.722;2023-11-18T02:37:20;32.13;;;17.63;;
14251;SDS011;7210;51.502;10.722;2023-11-18T02:39:57;28.63;;;17.97;;
14251;SDS011;7210;51.502;10.722;2023-11-18T02:42:39;26.13;;;17.37;;
14251;SDS011;7210;51.502;10.722;2023-11-18T02:45:08;26.57;;;17.47;;
14251;SDS011;7210;51.502;10.722;2023-11-18T02:47:37;31.10;;;18.40;;
14251;SDS011;7210;51.502;10.722;2023-11-18T02:53:22;29.87;;;18.53;;
14251;SDS011;7210;51.502;10.722;2023-11-18T02:55:50;30.03;;;19.13;;
14251;SDS011;7210;51.502;10.722;2023-11-18T02:58:19;33.10;;;19.50;;
14251;SDS011;7210;51.502;10.722;2023-11-18T03:04:34;34.83;;;20.23;;
14251;SDS011;7210;51.502;10.722;2023-11-18T03:07:02;30.33;;;18.90;;
14251;SDS011;7210;51.502;10.722;2023-11-18T03:09:38;29.87;;;18.57;;
14251;SDS011;7210;51.502;10.722;2023-11-18T03:12:08;33.20;;;19.03;;
14251;SDS011;7210;51.502;10.722;2023-11-18T03:14:39;34.13;;;19.43;;
14251;SDS011;7210;51.502;10.722;2023-11-18T03:17:07;32.20;;;19.37;;
14251;SDS011;7210;51.502;10.722;2023-11-18T03:19:44;35.90;;;19.43;;
14251;SDS011;7210;51.502;10.722;2023-11-18T03:25:22;27.30;;;18.33;;
14251;SDS011;7210;51.502;10.722;2023-11-18T03:28:08;27.30;;;18.97;;
14251;SDS011;7210;51.502;10.722;2023-11-18T03:30:36;31.80;;;19.57;;
14251;SDS011;7210;51.502;10.722;2023-11-18T03:35:58;30.80;;;18.60;;
14251;SDS011;7210;51.502;10.722;2023-11-18T03:44:14;29.20;;;17.60;;
14251;SDS011;7210;51.502;10.722;2023-11-18T03:46:43;31.10;;;18.47;;
14251;SDS011;7210;51.502;10.722;2023-11-18T03:49:20;29.93;;;17.37;;
14251;SDS011;7210;51.502;10.722;2023-11-18T03:51:50;29.27;;;17.57;;
14251;SDS011;7210;51.502;10.722;2023-11-18T03:54:17;27.00;;;17.07;;
14251;SDS011;7210;51.502;10.722;2023-11-18T03:56:44;25.30;;;17.37;;
14251;SDS011;7210;51.502;10.722;2023-11-18T03:59:26;28.37;;;17.43;;
14251;SDS011;7210;51.502;10.722;2023-11-18T04:10:56;27.43;;;16.00;;
14251;SDS011;7210;51.502;10.722;2023-11-18T04:13:23;28.57;;;16.57;;
14251;SDS011;7210;51.502;10.722;2023-11-18T04:15:50;28.30;;;17.07;;
14251;SDS011;7210;51.502;10.722;2023-11-18T04:18:18;29.40;;;17.87;;
14251;SDS011;7210;51.502;10.722;2023-11-18T04:23:34;28.27;;;17.13;;
14251;SDS011;7210;51.502;10.722;2023-11-18T04:26:03;30.90;;;18.93;;
14251;SDS011;7210;51.502;10.722;2023-11-18T04:28:30;30.70;;;19.83;;
14251;SDS011;7210;51.502;10.722;2023-11-18T04:30:58;28.33;;;17.13;;
14251;SDS011;7210;51.502;10.722;2023-11-18T04:33:33;29.63;;;18.80;;
14251;SDS011;7210;51.502;10.722;2023-11-18T04:36:09;29.83;;;18.37;;
14251;SDS011;7210;51.502;10.722;2023-11-18T04:41:41;34.20;;;17.83;;
14251;SDS011;7210;51.502;10.722;2023-11-18T04:44:08;30.90;;;18.20;;
14251;SDS011;7210;51.502;10.722;2023-11-18T04:49:39;21.87;;;15.77;;
14251;SDS011;7210;51.502;10.722;2023-11-18T04:52:08;23.30;;;14.67;;
14251;SDS011;7210;51.502;10.722;2023-11-18T04:54:35;26.40;;;16.50;;
14251;SDS011;7210;51.502;10.722;2023-11-18T04:57:08;25.50;;;16.27;;
14251;SDS011;7210;51.502;10.722;2023-11-18T05:02:42;24.90;;;14.67;;
14251;SDS011;7210;51.502;10.722;2023-11-18T05:05:14;23.53;;;16.03;;
14251;SDS011;7210;51.502;10.722;2023-11-18T05:07:50;27.27;;;16.30;;
14251;SDS011;7210;51.502;10.722;2023-11-18T05:10:20;22.37;;;14.47;;
14251;SDS011;7210;51.502;10.722;2023-11-18T05:16:02;24.90;;;16.50;;
14251;SDS011;7210;51.502;10.722;2023-11-18T05:18:29;25.60;;;15.43;;
14251;SDS011;7210;51.502;10.722;2023-11-18T05:27:20;24.90;;;16.50;;
14251;SDS011;7210;51.502;10.722;2023-11-18T05:35:54;26.77;;;16.90;;
14251;SDS011;7210;51.502;10.722;2023-11-18T05:41:33;23.57;;;16.67;;
14251;SDS011;7210;51.502;10.722;2023-11-18T05:44:14;25.00;;;16.97;;
14251;SDS011;7210;51.502;10.722;2023-11-18T05:49:38;22.40;;;16.50;;
14251;SDS011;7210;51.502;10.722;2023-11-18T05:52:08;24.17;;;16.83;;
14251;SDS011;7210;51.502;10.722;2023-11-18T05:54:50;24.63;;;17.30;;
14251;SDS011;7210;51.502;10.722;2023-11-18T05:57:27;23.47;;;16.30;;
14251;SDS011;7210;51.502;10.722;2023-11-18T05:59:54;23.50;;;16.57;;
14251;SDS011;7210;51.502;10.722;2023-11-18T06:05:38;21.40;;;15.53;;
14251;SDS011;7210;51.502;10.722;2023-11-18T06:08:20;23.13;;;15.77;;
14251;SDS011;7210;51.502;10.722;2023-11-18T06:10:48;21.50;;;15.97;;
14251;SDS011;7210;51.502;10.722;2023-11-18T06:16:08;23.20;;;16.37;;
14251;SDS011;7210;51.502;10.722;2023-11-18T06:18:39;24.33;;;16.90;;
14251;SDS011;7210;51.502;10.722;2023-11-18T06:21:07;19.47;;;15.20;;
14251;SDS011;7210;51.502;10.722;2023-11-18T06:23:40;24.83;;;16.07;;
14251;SDS011;7210;51.502;10.722;2023-11-18T06:26:14;22.03;;;16.63;;
14251;SDS011;7210;51.502;10.722;2023-11-18T06:28:51;28.33;;;16.57;;
14251;SDS011;7210;51.502;10.722;2023-11-18T06:31:26;26.67;;;17.60;;
14251;SDS011;7210;51.502;10.722;2023-11-18T06:36:59;23.90;;;17.43;;
14251;SDS011;7210;51.502;10.722;2023-11-18T06:39:44;27.27;;;16.57;;
14251;SDS011;7210;51.502;10.722;2023-11-18T06:42:32;24.30;;;18.23;;
14251;SDS011;7210;51.502;10.722;2023-11-18T06:45:15;22.37;;;16.97;;
14251;SDS011;7210;51.502;10.722;2023-11-18T06:50:32;25.97;;;17.20;;
14251;SDS011;7210;51.502;10.722;2023-11-18T06:53:00;25.57;;;17.37;;
14251;SDS011;7210;51.502;10.722;2023-11-18T06:55:44;25.60;;;18.60;;
14251;SDS011;7210;51.502;10.722;2023-11-18T06:58:11;25.57;;;18.67;;
14251;SDS011;7210;51.502;10.722;2023-11-18T07:00:45;26.17;;;18.67;;
14251;SDS011;7210;51.502;10.722;2023-11-18T07:03:32;25.83;;;18.47;;
14251;SDS011;7210;51.502;10.722;2023-11-18T07:06:02;26.40;;;18.40;;
14251;SDS011;7210;51.502;10.722;2023-11-18T07:08:32;26.20;;;17.27;;
14251;SDS011;7210;51.502;10.722;2023-11-18T07:11:00;23.07;;;17.67;;
14251;SDS011;7210;51.502;10.722;2023-11-18T07:16:33;24.33;;;18.10;;
14251;SDS011;7210;51.502;10.722;2023-11-18T07:19:08;24.90;;;17.17;;
14251;SDS011;7210;51.502;10.722;2023-11-18T07:21:40;27.23;;;17.00;;
14251;SDS011;7210;51.502;10.722;2023-11-18T07:24:08;21.87;;;16.90;;
14251;SDS011;7210;51.502;10.722;2023-11-18T07:26:50;25.63;;;18.60;;
14251;SDS011;7210;51.502;10.722;2023-11-18T07:29:32;22.83;;;16.90;;
14251;SDS011;7210;51.502;10.722;2023-11-18T07:32:15;23.80;;;17.67;;
14251;SDS011;7210;51.502;10.722;2023-11-18T07:34:50;20.43;;;16.60;;
14251;SDS011;7210;51.502;10.722;2023-11-18T07:37:32;24.17;;;18.17;;
14251;SDS011;7210;51.502;10.722;2023-11-18T07:43:50;22.40;;;16.67;;
14251;SDS011;7210;51.502;10.722;2023-11-18T07:46:18;24.13;;;17.87;;
14251;SDS011;7210;51.502;10.722;2023-11-18T07:48:51;21.20;;;15.47;;
14251;SDS011;7210;51.502;10.722;2023-11-18T07:51:19;20.77;;;15.47;;
14251;SDS011;7210;51.502;10.722;2023-11-18T07:54:02;20.47;;;15.97;;
14251;SDS011;7210;51.502;10.722;2023-11-18T07:56:32;19.37;;;15.57;;
14251;SDS011;7210;51.502;10.722;2023-11-18T07:59:14;21.20;;;15.97;;
14251;SDS011;7210;51.502;10.722;2023-11-18T08:01:50;20.60;;;16.70;;
14251;SDS011;7210;51.502;10.722;2023-11-18T08:04:21;19.80;;;15.80;;
14251;SDS011;7210;51.502;10.722;2023-11-18T08:06:48;21.67;;;16.07;;
14251;SDS011;7210;51.502;10.722;2023-11-18T08:12:20;20.47;;;15.63;;
14251;SDS011;7210;51.502;10.722;2023-11-18T08:17:44;23.70;;;16.23;;
14251;SDS011;7210;51.502;10.722;2023-11-18T08:20:15;22.20;;;16.77;;
14251;SDS011;7210;51.502;10.722;2023-11-18T08:26:02;23.07;;;16.97;;
14251;SDS011;7210;51.502;10.722;2023-11-18T08:28:44;25.70;;;17.77;;
14251;SDS011;7210;51.502;10.722;2023-11-18T08:31:20;23.07;;;17.37;;
14251;SDS011;7210;51.502;10.722;2023-11-18T08:34:02;26.33;;;17.60;;
14251;SDS011;7210;51.502;10.722;2023-11-18T08:39:26;28.73;;;19.20;;
14251;SDS011;7210;51.502;10.722;2023-11-18T08:42:02;28.17;;;19.77;;
14251;SDS011;7210;51.502;10.722;2023-11-18T08:44:38;31.00;;;19.77;;
14251;SDS011;7210;51.502;10.722;2023-11-18T08:47:05;26.87;;;18.43;;
14251;SDS011;7210;51.502;10.722;2023-11-18T08:49:33;24.93;;;19.13;;
14251;SDS011;7210;51.502;10.722;2023-11-18T08:52:15;27.03;;;18.93;;
14251;SDS011;7210;51.502;10.722;2023-11-18T08:54:56;25.20;;;18.63;;
14251;SDS011;7210;51.502;10.722;2023-11-18T08:57:50;25.53;;;18.27;;
14251;SDS011;7210;51.502;10.722;2023-11-18T09:03:19;26.70;;;19.63;;
14251;SDS011;7210;51.502;10.722;2023-11-18T09:06:03;30.07;;;21.57;;
14251;SDS011;7210;51.502;10.722;2023-11-18T09:08:45;30.60;;;21.03;;
14251;SDS011;7210;51.502;10.722;2023-11-18T09:11:26;24.80;;;20.03;;
14251;SDS011;7210;51.502;10.722;2023-11-18T09:13:57;26.53;;;19.33;;
14251;SDS011;7210;51.502;10.722;2023-11-18T09:16:26;25.97;;;20.27;;
14251;SDS011;7210;51.502;10.722;2023-11-18T09:18:54;27.53;;;18.93;;
14251;SDS011;7210;51.502;10.722;2023-11-18T09:21:32;26.27;;;19.87;;
14251;SDS011;7210;51.502;10.722;2023-11-18T09:24:01;27.83;;;20.10;;
14251;SDS011;7210;51.502;10.722;2023-11-18T09:26:32;23.50;;;19.53;;
14251;SDS011;7210;51.502;10.722;2023-11-18T09:29:02;25.83;;;18.83;;
14251;SDS011;7210;51.502;10.722;2023-11-18T09:31:38;27.90;;;20.60;;
14251;SDS011;7210;51.502;10.722;2023-11-18T09:34:14;27.57;;;19.43;;
14251;SDS011;7210;51.502;10.722;2023-11-18T09:36:44;24.30;;;19.73;;
14251;SDS011;7210;51.502;10.722;2023-11-18T09:39:15;25.77;;;20.07;;
14251;SDS011;7210;51.502;10.722;2023-11-18T09:41:54;24.67;;;18.80;;
14251;SDS011;7210;51.502;10.722;2023-11-18T09:44:32;24.07;;;18.43;;
14251;SDS011;7210;51.502;10.722;2023-11-18T09:47:02;23.23;;;18.70;;
14251;SDS011;7210;51.502;10.722;2023-11-18T09:49:38;22.90;;;18.20;;
14251;SDS011;7210;51.502;10.722;2023-11-18T09:52:08;24.80;;;19.00;;
14251;SDS011;7210;51.502;10.722;2023-11-18T09:54:45;24.13;;;18.70;;
14251;SDS011;7210;51.502;10.722;2023-11-18T09:57:23;22.30;;;18.30;;
14251;SDS011;7210;51.502;10.722;2023-11-18T10:00:00;23.13;;;18.17;;
14251;SDS011;7210;51.502;10.722;2023-11-18T10:02:45;23.47;;;18.67;;
14251;SDS011;7210;51.502;10.722;2023-11-18T10:05:12;26.03;;;18.63;;
14251;SDS011;7210;51.502;10.722;2023-11-18T10:07:44;26.13;;;18.73;;
14251;SDS011;7210;51.502;10.722;2023-11-18T10:10:15;22.17;;;17.33;;
14251;SDS011;7210;51.502;10.722;2023-11-18T10:12:42;23.57;;;17.93;;
14251;SDS011;7210;51.502;10.722;2023-11-18T10:15:14;23.93;;;18.13;;
14251;SDS011;7210;51.502;10.722;2023-11-18T10:17:50;25.77;;;18.57;;
14251;SDS011;7210;51.502;10.722;2023-11-18T10:23:16;26.57;;;18.97;;
14251;SDS011;7210;51.502;10.722;2023-11-18T10:25:52;26.10;;;19.67;;
14251;SDS011;7210;51.502;10.722;2023-11-18T10:28:26;29.17;;;20.50;;
14251;SDS011;7210;51.502;10.722;2023-11-18T10:34:02;28.43;;;19.77;;
14251;SDS011;7210;51.502;10.722;2023-11-18T10:36:38;28.33;;;20.00;;
14251;SDS011;7210;51.502;10.722;2023-11-18T10:39:10;28.93;;;21.90;;
14251;SDS011;7210;51.502;10.722;2023-11-18T10:44:30;27.20;;;20.13;;
14251;SDS011;7210;51.502;10.722;2023-11-18T10:47:02;28.60;;;19.97;;
14251;SDS011;7210;51.502;10.722;2023-11-18T10:49:38;28.03;;;19.90;;
14251;SDS011;7210;51.502;10.722;2023-11-18T10:55:02;23.40;;;17.70;;
14251;SDS011;7210;51.502;10.722;2023-11-18T10:57:37;23.83;;;17.90;;
14251;SDS011;7210;51.502;10.722;2023-11-18T11:00:20;19.60;;;15.97;;
14251;SDS011;7210;51.502;10.722;2023-11-18T11:02:57;18.37;;;13.73;;
14251;SDS011;7210;51.502;10.722;2023-11-18T11:05:27;16.57;;;13.73;;
14251;SDS011;7210;51.502;10.722;2023-11-18T11:11:00;14.37;;;10.60;;
14251;SDS011;7210;51.502;10.722;2023-11-18T11:13:39;15.87;;;12.13;;
14251;SDS011;7210;51.502;10.722;2023-11-18T11:16:07;15.50;;;10.93;;
14251;SDS011;7210;51.502;10.722;2023-11-18T11:18:39;14.77;;;11.97;;
14251;SDS011;7210;51.502;10.722;2023-11-18T11:21:18;15.73;;;12.83;;
14251;SDS011;7210;51.502;10.722;2023-11-18T11:23:49;14.83;;;12.47;;
14251;SDS011;7210;51.502;10.722;2023-11-18T11:29:42;13.20;;;10.83;;
14251;SDS011;7210;51.502;10.722;2023-11-18T11:32:26;13.83;;;9.60;;
14251;SDS011;7210;51.502;10.722;2023-11-18T11:35:10;12.80;;;10.37;;
14251;SDS011;7210;51.502;10.722;2023-11-18T11:37:46;11.93;;;8.83;;
14251;SDS011;7210;51.502;10.722;2023-11-18T11:43:38;12.47;;;9.63;;
14251;SDS011;7210;51.502;10.722;2023-11-18T11:55:15;13.37;;;10.13;;
14251;SDS011;7210;51.502;10.722;2023-11-18T11:57:50;12.20;;;9.33;;
14251;SDS011;7210;51.502;10.722;2023-11-18T12:00:20;12.20;;;9.83;;
14251;SDS011;7210;51.502;10.722;2023-11-18T12:06:21;8.47;;;6.60;;
14251;SDS011;7210;51.502;10.722;2023-11-18T12:08:51;7.80;;;6.30;;
14251;SDS011;7210;51.502;10.722;2023-11-18T12:18:19;6.53;;;5.90;;
14251;SDS011;7210;51.502;10.722;2023-11-18T12:20:56;6.57;;;5.97;;
14251;SDS011;7210;51.502;10.722;2023-11-18T12:23:28;8.07;;;6.33;;
14251;SDS011;7210;51.502;10.722;2023-11-18T12:26:37;7.83;;;6.70;;
14251;SDS011;7210;51.502;10.722;2023-11-18T12:32:08;7.10;;;6.40;;
14251;SDS011;7210;51.502;10.722;2023-11-18T12:40:54;6.90;;;6.20;;
14251;SDS011;7210;51.502;10.722;2023-11-18T12:43:39;8.70;;;6.90;;
14251;SDS011;7210;51.502;10.722;2023-11-18T12:49:20;7.47;;;6.67;;
14251;SDS011;7210;51.502;10.722;2023-11-18T12:52:08;8.37;;;7.47;;
14251;SDS011;7210;51.502;10.722;2023-11-18T12:54:44;8.60;;;7.80;;
14251;SDS011;7210;51.502;10.722;2023-11-18T12:57:18;8.23;;;7.43;;
14251;SDS011;7210;51.502;10.722;2023-11-18T13:07:03;10.00;;;7.10;;
14251;SDS011;7210;51.502;10.722;2023-11-18T13:13:18;7.67;;;6.90;;
14251;SDS011;7210;51.502;10.722;2023-11-18T13:19:32;7.70;;;6.63;;
14251;SDS011;7210;51.502;10.722;2023-11-18T13:29:36;7.33;;;5.97;;
14251;SDS011;7210;51.502;10.722;2023-11-18T13:35:52;5.67;;;4.90;;
14251;SDS011;7210;51.502;10.722;2023-11-18T13:45:08;5.33;;;4.10;;
14251;SDS011;7210;51.502;10.722;2023-11-18T13:55:39;6.20;;;5.60;;
14251;SDS011;7210;51.502;10.722;2023-11-18T13:58:08;9.27;;;6.17;;
14251;SDS011;7210;51.502;10.722;2023-11-18T14:03:48;5.73;;;5.10;;
14251;SDS011;7210;51.502;10.722;2023-11-18T14:13:09;7.13;;;6.13;;
14251;SDS011;7210;51.502;10.722;2023-11-18T14:22:02;14.33;;;12.60;;
14251;SDS011;7210;51.502;10.722;2023-11-18T14:27:31;7.23;;;6.53;;
14251;SDS011;7210;51.502;10.722;2023-11-18T14:29:58;5.67;;;5.10;;
14251;SDS011;7210;51.502;10.722;2023-11-18T14:32:44;10.23;;;8.47;;
14251;SDS011;7210;51.502;10.722;2023-11-18T14:35:13;12.63;;;10.00;;
14251;SDS011;7210;51.502;10.722;2023-11-18T14:37:50;9.27;;;7.40;;
14251;SDS011;7210;51.502;10.722;2023-11-18T14:47:14;7.70;;;6.13;;
14251;SDS011;7210;51.502;10.722;2023-11-18T14:49:56;8.23;;;6.80;;
14251;SDS011;7210;51.502;10.722;2023-11-18T14:52:33;7.93;;;7.10;;
14251;SDS011;7210;51.502;10.722;2023-11-18T15:02:02;7.43;;;6.10;;
14251;SDS011;7210;51.502;10.722;2023-11-18T15:04:29;9.03;;;6.83;;
14251;SDS011;7210;51.502;10.722;2023-11-18T15:07:14;8.10;;;7.30;;
14251;SDS011;7210;51.502;10.722;2023-11-18T15:21:38;5.70;;;5.10;;
14251;SDS011;7210;51.502;10.722;2023-11-18T15:30:31;7.03;;;6.33;;
14251;SDS011;7210;51.502;10.722;2023-11-18T15:32:58;7.70;;;6.33;;
14251;SDS011;7210;51.502;10.722;2023-11-18T15:35:26;6.93;;;5.80;;
14251;SDS011;7210;51.502;10.722;2023-11-18T15:38:08;8.53;;;6.23;;
14251;SDS011;7210;51.502;10.722;2023-11-18T15:43:50;6.53;;;5.70;;
14251;SDS011;7210;51.502;10.722;2023-11-18T15:52:26;9.10;;;6.00;;
14251;SDS011;7210;51.502;10.722;2023-11-18T15:54:54;7.17;;;6.50;;
14251;SDS011;7210;51.502;10.722;2023-11-18T15:57:38;8.37;;;7.00;;
14251;SDS011;7210;51.502;10.722;2023-11-18T16:00:09;8.33;;;6.90;;
14251;SDS011;7210;51.502;10.722;2023-11-18T16:02:44;8.77;;;7.40;;
14251;SDS011;7210;51.502;10.722;2023-11-18T16:05:16;9.50;;;7.50;;
14251;SDS011;7210;51.502;10.722;2023-11-18T16:10:44;9.87;;;7.70;;
14251;SDS011;7210;51.502;10.722;2023-11-18T16:13:12;13.00;;;8.50;;
14251;SDS011;7210;51.502;10.722;2023-11-18T16:15:50;12.87;;;8.83;;
14251;SDS011;7210;51.502;10.722;2023-11-18T16:18:20;23.23;;;17.73;;
14251;SDS011;7210;51.502;10.722;2023-11-18T16:20:49;13.00;;;9.93;;
14251;SDS011;7210;51.502;10.722;2023-11-18T16:26:38;55.17;;;37.07;;
14251;SDS011;7210;51.502;10.722;2023-11-18T16:29:05;41.30;;;30.00;;
14251;SDS011;7210;51.502;10.722;2023-11-18T16:31:32;45.80;;;29.97;;
14251;SDS011;7210;51.502;10.722;2023-11-18T16:33:59;22.77;;;18.20;;
14251;SDS011;7210;51.502;10.722;2023-11-18T16:36:29;24.43;;;19.43;;
14251;SDS011;7210;51.502;10.722;2023-11-18T16:38:56;25.50;;;20.33;;
14251;SDS011;7210;51.502;10.722;2023-11-18T16:41:24;26.37;;;20.73;;
14251;SDS011;7210;51.502;10.722;2023-11-18T16:43:56;14.47;;;12.17;;
14251;SDS011;7210;51.502;10.722;2023-11-18T16:46:23;19.23;;;15.43;;
14251;SDS011;7210;51.502;10.722;2023-11-18T16:48:56;17.73;;;15.83;;
14251;SDS011;7210;51.502;10.722;2023-11-18T16:51:23;43.57;;;34.13;;
14251;SDS011;7210;51.502;10.722;2023-11-18T16:53:51;23.67;;;21.03;;
14251;SDS011;7210;51.502;10.722;2023-11-18T16:56:18;22.10;;;19.27;;
14251;SDS011;7210;51.502;10.722;2023-11-18T16:58:45;24.03;;;21.53;;
14251;SDS011;7210;51.502;10.722;2023-11-18T17:01:12;22.07;;;19.87;;
14251;SDS011;7210;51.502;10.722;2023-11-18T17:03:41;20.07;;;16.37;;
14251;SDS011;7210;51.502;10.722;2023-11-18T17:06:08;31.33;;;25.50;;
14251;SDS011;7210;51.502;10.722;2023-11-18T17:08:35;46.60;;;33.50;;
14251;SDS011;7210;51.502;10.722;2023-11-18T17:11:04;23.10;;;17.03;;
14251;SDS011;7210;51.502;10.722;2023-11-18T17:13:31;34.00;;;23.77;;
14251;SDS011;7210;51.502;10.722;2023-11-18T17:15:59;70.37;;;42.63;;
14251;SDS011;7210;51.502;10.722;2023-11-18T17:18:25;80.87;;;52.60;;
14251;SDS011;7210;51.502;10.722;2023-11-18T17:20:54;72.50;;;45.37;;
14251;SDS011;7210;51.502;10.722;2023-11-18T17:23:21;34.47;;;25.53;;
14251;SDS011;7210;51.502;10.722;2023-11-18T17:25:50;38.60;;;27.87;;
14251;SDS011;7210;51.502;10.722;2023-11-18T17:28:19;56.13;;;38.43;;
14251;SDS011;7210;51.502;10.722;2023-11-18T17:30:46;60.10;;;39.17;;
14251;SDS011;7210;51.502;10.722;2023-11-18T17:33:13;27.33;;;21.37;;
14251;SDS011;7210;51.502;10.722;2023-11-18T17:35:40;24.63;;;18.70;;
14251;SDS011;7210;51.502;10.722;2023-11-18T17:38:08;24.13;;;18.77;;
14251;SDS011;7210;51.502;10.722;2023-11-18T17:40:35;20.63;;;16.13;;
14251;SDS011;7210;51.502;10.722;2023-11-18T17:43:03;14.00;;;12.03;;
14251;SDS011;7210;51.502;10.722;2023-11-18T17:45:32;13.33;;;10.83;;
14251;SDS011;7210;51.502;10.722;2023-11-18T17:47:59;12.17;;;10.53;;
14251;SDS011;7210;51.502;10.722;2023-11-18T17:50:31;11.53;;;10.33;;
14251;SDS011;7210;51.502;10.722;2023-11-18T17:53:00;11.47;;;10.30;;
14251;SDS011;7210;51.502;10.722;2023-11-18T17:55:38;11.03;;;9.80;;
14251;SDS011;7210;51.502;10.722;2023-11-18T17:58:05;18.73;;;14.97;;
14251;SDS011;7210;51.502;10.722;2023-11-18T18:00:39;18.77;;;14.73;;
14251;SDS011;7210;51.502;10.722;2023-11-18T18:03:07;12.00;;;9.87;;
14251;SDS011;7210;51.502;10.722;2023-11-18T18:05:35;16.73;;;14.50;;
14251;SDS011;7210;51.502;10.722;2023-11-18T18:08:03;27.47;;;24.63;;
14251;SDS011;7210;51.502;10.722;2023-11-18T18:10:32;21.40;;;19.10;;
14251;SDS011;7210;51.502;10.722;2023-11-18T18:13:02;15.50;;;12.57;;
14251;SDS011;7210;51.502;10.722;2023-11-18T18:15:30;13.37;;;11.70;;
14251;SDS011;7210;51.502;10.722;2023-11-18T18:17:58;13.77;;;12.27;;
14251;SDS011;7210;51.502;10.722;2023-11-18T18:20:26;15.40;;;12.27;;
14251;SDS011;7210;51.502;10.722;2023-11-18T18:22:56;15.47;;;13.10;;
14251;SDS011;7210;51.502;10.722;2023-11-18T18:25:23;14.57;;;11.63;;
14251;SDS011;7210;51.502;10.722;2023-11-18T18:27:50;12.97;;;11.60;;
14251;SDS011;7210;51.502;10.722;2023-11-18T18:30:17;14.03;;;11.77;;
14251;SDS011;7210;51.502;10.722;2023-11-18T18:32:46;12.93;;;11.57;;
14251;SDS011;7210;51.502;10.722;2023-11-18T18:35:16;12.63;;;10.97;;
14251;SDS011;7210;51.502;10.722;2023-11-18T18:37:43;11.63;;;10.43;;
14251;SDS011;7210;51.502;10.722;2023-11-18T18:40:11;13.60;;;10.30;;
14251;SDS011;7210;51.502;10.722;2023-11-18T18:42:40;11.77;;;10.13;;
14251;SDS011;7210;51.502;10.722;2023-11-18T18:45:08;11.50;;;9.70;;
14251;SDS011;7210;51.502;10.722;2023-11-18T18:47:36;8.53;;;7.67;;
14251;SDS011;7210;51.502;10.722;2023-11-18T18:50:04;11.43;;;8.97;;
14251;SDS011;7210;51.502;10.722;2023-11-18T18:52:34;10.77;;;8.70;;
14251;SDS011;7210;51.502;10.722;2023-11-18T18:55:01;9.40;;;7.63;;
14251;SDS011;7210;51.502;10.722;2023-11-18T18:57:33;8.83;;;7.80;;
14251;SDS011;7210;51.502;10.722;2023-11-18T19:00:00;10.10;;;8.30;;
14251;SDS011;7210;51.502;10.722;2023-11-18T19:02:29;9.13;;;7.27;;
14251;SDS011;7210;51.502;10.722;2023-11-18T19:04:56;7.07;;;6.20;;
14251;SDS011;7210;51.502;10.722;2023-11-18T19:07:23;7.03;;;5.03;;
14251;SDS011;7210;51.502;10.722;2023-11-18T19:09:55;5.90;;;5.17;;
14251;SDS011;7210;51.502;10.722;2023-11-18T19:12:22;5.33;;;4.83;;
14251;SDS011;7210;51.502;10.722;2023-11-18T19:14:49;6.10;;;5.50;;
14251;SDS011;7210;51.502;10.722;2023-11-18T19:17:16;6.23;;;5.63;;
14251;SDS011;7210;51.502;10.722;2023-11-18T19:19:50;6.70;;;5.37;;
14251;SDS011;7210;51.502;10.722;2023-11-18T19:22:17;7.40;;;5.93;;
14251;SDS011;7210;51.502;10.722;2023-11-18T19:24:44;6.97;;;5.33;;
14251;SDS011;7210;51.502;10.722;2023-11-18T19:27:21;5.00;;;4.50;;
14251;SDS011;7210;51.502;10.722;2023-11-18T19:29:48;5.67;;;4.93;;
14251;SDS011;7210;51.502;10.722;2023-11-18T19:32:15;7.13;;;5.00;;
14251;SDS011;7210;51.502;10.722;2023-11-18T19:34:42;5.87;;;5.07;;
14251;SDS011;7210;51.502;10.722;2023-11-18T19:37:09;5.77;;;5.17;;
14251;SDS011;7210;51.502;10.722;2023-11-18T19:39:37;5.37;;;4.70;;
14251;SDS011;7210;51.502;10.722;2023-11-18T19:42:04;5.27;;;4.77;;
14251;SDS011;7210;51.502;10.722;2023-11-18T19:44:34;7.57;;;6.77;;
14251;SDS011;7210;51.502;10.722;2023-11-18T19:47:01;6.00;;;5.40;;
14251;SDS011;7210;51.502;10.722;2023-11-18T19:49:29;6.17;;;5.20;;
14251;SDS011;7210;51.502;10.722;2023-11-18T19:51:58;6.33;;;5.70;;
14251;SDS011;7210;51.502;10.722;2023-11-18T19:54:25;6.97;;;6.27;;
14251;SDS011;7210;51.502;10.722;2023-11-18T19:56:52;6.30;;;5.70;;
14251;SDS011;7210;51.502;10.722;2023-11-18T19:59:20;6.47;;;5.87;;
14251;SDS011;7210;51.502;10.722;2023-11-18T20:01:49;6.63;;;5.93;;
14251;SDS011;7210;51.502;10.722;2023-11-18T20:04:20;5.33;;;4.83;;
14251;SDS011;7210;51.502;10.722;2023-11-18T20:06:47;5.43;;;4.87;;
14251;SDS011;7210;51.502;10.722;2023-11-18T20:09:15;5.03;;;4.57;;